sensor_id;sensor_type;location;lat;lon;timestamp;pressure;altitude;pressure_sealevel;temperature;humidity
20077;BME280;12348;42.710;23.378;2023-04-25T00:04:27;94393.28;;;10.56;100.00
20077;BME280;12348;42.710;23.378;2023-04-25T00:06:55;94386.34;;;10.18;100.00
20077;BME280;12348;42.710;23.378;2023-04-25T00:09:22;94377.81;;;10.16;100.00
20077;BME280;12348;42.710;23.378;2023-04-25T00:11:49;94379.22;;;10.14;100.00
20077;BME280;12348;42.710;23.378;2023-04-25T00:14:16;94368.88;;;10.07;100.00
20077;BME280;12348;42.710;23.378;2023-04-25T00:16:43;94360.50;;;10.09;100.00
20077;BME280;12348;42.710;23.378;2023-04-25T00:19:10;94357.13;;;10.03;100.00
20077;BME280;12348;42.710;23.378;2023-04-25T00:21:39;94347.78;;;10.01;100.00
20077;BME280;12348;42.710;23.378;2023-04-25T00:24:07;94346.94;;;10.14;100.00
20077;BME280;12348;42.710;23.378;2023-04-25T00:26:34;94342.53;;;10.18;100.00
20077;BME280;12348;42.710;23.378;2023-04-25T00:29:02;94341.00;;;10.03;100.00
20077;BME280;12348;42.710;23.378;2023-04-25T00:31:29;94329.56;;;9.98;100.00
20077;BME280;12348;42.710;23.378;2023-04-25T00:33:55;94341.53;;;9.91;100.00
20077;BME280;12348;42.710;23.378;2023-04-25T00:36:22;94342.34;;;9.92;100.00
20077;BME280;12348;42.710;23.378;2023-04-25T00:38:50;94334.44;;;9.95;100.00
20077;BME280;12348;42.710;23.378;2023-04-25T00:41:18;94336.47;;;9.90;100.00
20077;BME280;12348;42.710;23.378;2023-04-25T00:43:45;94339.97;;;10.13;100.00
20077;BME280;12348;42.710;23.378;2023-04-25T00:46:12;94330.06;;;10.00;100.00
20077;BME280;12348;42.710;23.378;2023-04-25T00:48:39;94332.00;;;9.85;100.00
20077;BME280;12348;42.710;23.378;2023-04-25T00:51:06;94336.31;;;9.73;100.00
20077;BME280;12348;42.710;23.378;2023-04-25T00:53:33;94339.09;;;9.81;100.00
20077;BME280;12348;42.710;23.378;2023-04-25T00:56:02;94331.16;;;9.99;100.00
20077;BME280;12348;42.710;23.378;2023-04-25T00:58:29;94334.69;;;9.85;100.00
20077;BME280;12348;42.710;23.378;2023-04-25T01:00:57;94346.53;;;9.84;100.00
20077;BME280;12348;42.710;23.378;2023-04-25T01:03:24;94352.44;;;9.86;100.00
20077;BME280;12348;42.710;23.378;2023-04-25T01:05:52;94340.81;;;10.00;100.00
20077;BME280;12348;42.710;23.378;2023-04-25T01:08:21;94336.16;;;10.14;100.00
20077;BME280;12348;42.710;23.378;2023-04-25T01:10:50;94330.94;;;10.09;100.00
20077;BME280;12348;42.710;23.378;2023-04-25T01:13:18;94332.09;;;9.94;100.00
20077;BME280;12348;42.710;23.378;2023-04-25T01:15:45;94323.03;;;9.90;100.00
20077;BME280;12348;42.710;23.378;2023-04-25T01:18:12;94317.22;;;9.96;100.00
20077;BME280;12348;42.710;23.378;2023-04-25T01:20:40;94308.25;;;10.01;100.00
20077;BME280;12348;42.710;23.378;2023-04-25T01:23:09;94303.91;;;9.91;100.00
20077;BME280;12348;42.710;23.378;2023-04-25T01:25:37;94304.63;;;9.83;100.00
20077;BME280;12348;42.710;23.378;2023-04-25T01:28:05;94302.41;;;9.85;100.00
20077;BME280;12348;42.710;23.378;2023-04-25T01:30:33;94296.38;;;10.02;100.00
20077;BME280;12348;42.710;23.378;2023-04-25T01:33:00;94291.78;;;10.03;100.00
20077;BME280;12348;42.710;23.378;2023-04-25T01:35:28;94296.56;;;9.83;100.00
20077;BME280;12348;42.710;23.378;2023-04-25T01:37:55;94295.50;;;9.70;100.00
20077;BME280;12348;42.710;23.378;2023-04-25T01:40:24;94291.97;;;9.61;100.00
20077;BME280;12348;42.710;23.378;2023-04-25T01:42:51;94292.91;;;9.79;100.00
20077;BME280;12348;42.710;23.378;2023-04-25T01:45:19;94297.81;;;9.63;100.00
20077;BME280;12348;42.710;23.378;2023-04-25T01:47:46;94299.97;;;9.53;100.00
20077;BME280;12348;42.710;23.378;2023-04-25T01:50:15;94301.75;;;9.43;100.00
20077;BME280;12348;42.710;23.378;2023-04-25T01:52:42;94300.00;;;9.39;100.00
20077;BME280;12348;42.710;23.378;2023-04-25T01:55:09;94304.00;;;9.28;100.00
20077;BME280;12348;42.710;23.378;2023-04-25T01:57:38;94301.09;;;9.24;100.00
20077;BME280;12348;42.710;23.378;2023-04-25T02:00:06;94303.00;;;9.23;100.00
20077;BME280;12348;42.710;23.378;2023-04-25T02:02:34;94313.84;;;9.18;100.00
20077;BME280;12348;42.710;23.378;2023-04-25T02:05:00;94311.53;;;9.26;100.00
20077;BME280;12348;42.710;23.378;2023-04-25T02:07:27;94295.03;;;9.18;100.00
20077;BME280;12348;42.710;23.378;2023-04-25T02:09:54;94302.63;;;9.16;100.00
20077;BME280;12348;42.710;23.378;2023-04-25T02:12:23;94296.91;;;9.32;100.00
20077;BME280;12348;42.710;23.378;2023-04-25T02:14:52;94286.44;;;9.44;100.00
20077;BME280;12348;42.710;23.378;2023-04-25T02:17:19;94282.78;;;9.62;100.00
20077;BME280;12348;42.710;23.378;2023-04-25T02:19:47;94283.56;;;9.40;100.00
20077;BME280;12348;42.710;23.378;2023-04-25T02:22:14;94288.19;;;9.26;100.00
20077;BME280;12348;42.710;23.378;2023-04-25T02:24:41;94278.69;;;9.42;100.00
20077;BME280;12348;42.710;23.378;2023-04-25T02:27:07;94278.81;;;9.37;100.00
20077;BME280;12348;42.710;23.378;2023-04-25T02:29:34;94268.06;;;9.37;100.00
20077;BME280;12348;42.710;23.378;2023-04-25T02:32:03;94268.16;;;9.32;100.00
20077;BME280;12348;42.710;23.378;2023-04-25T02:34:29;94267.28;;;9.23;100.00
20077;BME280;12348;42.710;23.378;2023-04-25T02:36:56;94263.25;;;9.12;100.00
20077;BME280;12348;42.710;23.378;2023-04-25T02:39:23;94259.34;;;9.18;100.00
20077;BME280;12348;42.710;23.378;2023-04-25T02:41:51;94263.91;;;9.17;100.00
20077;BME280;12348;42.710;23.378;2023-04-25T02:44:18;94263.81;;;9.22;100.00
20077;BME280;12348;42.710;23.378;2023-04-25T02:46:45;94258.25;;;9.19;100.00
20077;BME280;12348;42.710;23.378;2023-04-25T02:49:13;94251.50;;;9.08;100.00
20077;BME280;12348;42.710;23.378;2023-04-25T02:51:40;94260.06;;;9.10;100.00
20077;BME280;12348;42.710;23.378;2023-04-25T02:54:06;94252.34;;;9.31;100.00
20077;BME280;12348;42.710;23.378;2023-04-25T02:56:33;94246.78;;;9.27;100.00
20077;BME280;12348;42.710;23.378;2023-04-25T02:59:00;94251.66;;;9.25;100.00
20077;BME280;12348;42.710;23.378;2023-04-25T03:01:27;94251.31;;;9.04;100.00
20077;BME280;12348;42.710;23.378;2023-04-25T03:03:54;94253.41;;;8.93;100.00
20077;BME280;12348;42.710;23.378;2023-04-25T03:06:23;94253.63;;;8.97;100.00
20077;BME280;12348;42.710;23.378;2023-04-25T03:08:49;94254.69;;;8.96;100.00
20077;BME280;12348;42.710;23.378;2023-04-25T03:11:16;94256.19;;;9.02;100.00
20077;BME280;12348;42.710;23.378;2023-04-25T03:13:45;94258.47;;;9.09;100.00
20077;BME280;12348;42.710;23.378;2023-04-25T03:16:12;94247.84;;;8.90;100.00
20077;BME280;12348;42.710;23.378;2023-04-25T03:18:39;94239.28;;;8.88;100.00
20077;BME280;12348;42.710;23.378;2023-04-25T03:21:06;94240.59;;;8.90;100.00
20077;BME280;12348;42.710;23.378;2023-04-25T03:23:34;94252.19;;;8.99;100.00
20077;BME280;12348;42.710;23.378;2023-04-25T03:26:01;94253.69;;;9.06;100.00
20077;BME280;12348;42.710;23.378;2023-04-25T03:28:28;94250.63;;;8.98;100.00
20077;BME280;12348;42.710;23.378;2023-04-25T03:30:55;94245.56;;;8.83;100.00
20077;BME280;12348;42.710;23.378;2023-04-25T03:33:22;94251.53;;;8.80;100.00
20077;BME280;12348;42.710;23.378;2023-04-25T03:35:48;94247.13;;;9.12;100.00
20077;BME280;12348;42.710;23.378;2023-04-25T03:38:16;94238.06;;;9.44;100.00
20077;BME280;12348;42.710;23.378;2023-04-25T03:40:44;94245.31;;;9.21;100.00
20077;BME280;12348;42.710;23.378;2023-04-25T03:43:11;94249.69;;;9.17;100.00
20077;BME280;12348;42.710;23.378;2023-04-25T03:45:38;94242.94;;;9.19;100.00
20077;BME280;12348;42.710;23.378;2023-04-25T03:48:05;94248.78;;;9.21;100.00
20077;BME280;12348;42.710;23.378;2023-04-25T03:50:31;94246.38;;;9.34;100.00
20077;BME280;12348;42.710;23.378;2023-04-25T03:52:58;94244.59;;;9.52;100.00
20077;BME280;12348;42.710;23.378;2023-04-25T03:55:25;94258.84;;;9.75;100.00
20077;BME280;12348;42.710;23.378;2023-04-25T03:57:53;94237.97;;;10.56;100.00
20077;BME280;12348;42.710;23.378;2023-04-25T04:00:20;94239.38;;;11.11;100.00
20077;BME280;12348;42.710;23.378;2023-04-25T04:02:47;94230.97;;;12.17;100.00
20077;BME280;12348;42.710;23.378;2023-04-25T04:05:13;94237.66;;;13.25;100.00
20077;BME280;12348;42.710;23.378;2023-04-25T04:07:40;94244.50;;;14.06;100.00
20077;BME280;12348;42.710;23.378;2023-04-25T04:10:09;94255.41;;;14.76;100.00
20077;BME280;12348;42.710;23.378;2023-04-25T04:12:36;94256.56;;;14.88;100.00
20077;BME280;12348;42.710;23.378;2023-04-25T04:15:05;94252.03;;;16.21;100.00
20077;BME280;12348;42.710;23.378;2023-04-25T04:17:33;94245.91;;;17.51;100.00
20077;BME280;12348;42.710;23.378;2023-04-25T04:20:00;94252.09;;;17.32;100.00
20077;BME280;12348;42.710;23.378;2023-04-25T04:22:27;94246.00;;;15.47;100.00
20077;BME280;12348;42.710;23.378;2023-04-25T04:24:53;94245.66;;;14.63;100.00
20077;BME280;12348;42.710;23.378;2023-04-25T04:27:22;94249.44;;;13.71;100.00
20077;BME280;12348;42.710;23.378;2023-04-25T04:29:49;94250.94;;;14.14;100.00
20077;BME280;12348;42.710;23.378;2023-04-25T04:32:19;94239.28;;;14.68;100.00
20077;BME280;12348;42.710;23.378;2023-04-25T04:34:45;94242.50;;;15.35;100.00
20077;BME280;12348;42.710;23.378;2023-04-25T04:37:14;94240.44;;;13.79;100.00
20077;BME280;12348;42.710;23.378;2023-04-25T04:39:40;94250.22;;;12.92;100.00
20077;BME280;12348;42.710;23.378;2023-04-25T04:42:07;94246.75;;;12.53;100.00
20077;BME280;12348;42.710;23.378;2023-04-25T04:44:34;94249.22;;;13.05;100.00
20077;BME280;12348;42.710;23.378;2023-04-25T04:47:02;94260.75;;;12.84;100.00
20077;BME280;12348;42.710;23.378;2023-04-25T04:49:32;94244.78;;;12.62;100.00
20077;BME280;12348;42.710;23.378;2023-04-25T04:51:59;94248.16;;;12.50;100.00
20077;BME280;12348;42.710;23.378;2023-04-25T04:54:26;94250.50;;;12.13;100.00
20077;BME280;12348;42.710;23.378;2023-04-25T04:56:53;94262.75;;;12.11;100.00
20077;BME280;12348;42.710;23.378;2023-04-25T04:59:20;94280.06;;;12.10;100.00
20077;BME280;12348;42.710;23.378;2023-04-25T05:01:47;94274.81;;;11.96;100.00
20077;BME280;12348;42.710;23.378;2023-04-25T05:04:14;94262.91;;;11.97;100.00
20077;BME280;12348;42.710;23.378;2023-04-25T05:06:42;94266.25;;;11.94;100.00
20077;BME280;12348;42.710;23.378;2023-04-25T05:09:14;94271.16;;;11.66;100.00
20077;BME280;12348;42.710;23.378;2023-04-25T05:11:42;94275.59;;;11.79;100.00
20077;BME280;12348;42.710;23.378;2023-04-25T05:14:08;94283.34;;;11.72;100.00
20077;BME280;12348;42.710;23.378;2023-04-25T05:16:35;94291.31;;;11.77;100.00
20077;BME280;12348;42.710;23.378;2023-04-25T05:19:04;94277.81;;;11.77;100.00
20077;BME280;12348;42.710;23.378;2023-04-25T05:21:31;94285.09;;;11.51;100.00
20077;BME280;12348;42.710;23.378;2023-04-25T05:24:01;94282.72;;;11.49;100.00
20077;BME280;12348;42.710;23.378;2023-04-25T05:26:28;94282.09;;;11.52;100.00
20077;BME280;12348;42.710;23.378;2023-04-25T05:28:56;94292.72;;;11.66;100.00
20077;BME280;12348;42.710;23.378;2023-04-25T05:31:23;94284.94;;;11.47;100.00
20077;BME280;12348;42.710;23.378;2023-04-25T05:33:49;94276.53;;;11.49;100.00
20077;BME280;12348;42.710;23.378;2023-04-25T05:36:16;94272.72;;;11.50;100.00
20077;BME280;12348;42.710;23.378;2023-04-25T05:38:43;94279.25;;;11.75;100.00
20077;BME280;12348;42.710;23.378;2023-04-25T05:41:11;94278.59;;;11.60;100.00
20077;BME280;12348;42.710;23.378;2023-04-25T05:43:38;94272.41;;;11.69;100.00
20077;BME280;12348;42.710;23.378;2023-04-25T05:46:10;94272.09;;;11.70;100.00
20077;BME280;12348;42.710;23.378;2023-04-25T05:48:37;94269.72;;;11.77;100.00
20077;BME280;12348;42.710;23.378;2023-04-25T05:51:04;94274.78;;;11.79;100.00
20077;BME280;12348;42.710;23.378;2023-04-25T05:53:32;94275.13;;;11.86;100.00
20077;BME280;12348;42.710;23.378;2023-04-25T05:56:00;94281.16;;;12.00;100.00
20077;BME280;12348;42.710;23.378;2023-04-25T05:58:34;94274.28;;;12.20;100.00
20077;BME280;12348;42.710;23.378;2023-04-25T06:01:01;94280.59;;;12.42;100.00
20077;BME280;12348;42.710;23.378;2023-04-25T06:03:29;94273.41;;;12.63;100.00
20077;BME280;12348;42.710;23.378;2023-04-25T06:05:55;94269.69;;;13.15;100.00
20077;BME280;12348;42.710;23.378;2023-04-25T06:08:22;94272.84;;;13.17;100.00
20077;BME280;12348;42.710;23.378;2023-04-25T06:10:49;94271.28;;;13.37;100.00
20077;BME280;12348;42.710;23.378;2023-04-25T06:13:16;94276.25;;;13.55;100.00
20077;BME280;12348;42.710;23.378;2023-04-25T06:15:50;94263.84;;;13.96;100.00
20077;BME280;12348;42.710;23.378;2023-04-25T06:18:19;94266.50;;;14.38;100.00
20077;BME280;12348;42.710;23.378;2023-04-25T06:20:46;94268.84;;;14.40;100.00
20077;BME280;12348;42.710;23.378;2023-04-25T06:23:13;94274.75;;;14.42;100.00
20077;BME280;12348;42.710;23.378;2023-04-25T06:25:39;94272.41;;;14.52;100.00
20077;BME280;12348;42.710;23.378;2023-04-25T06:28:06;94272.50;;;15.14;100.00
20077;BME280;12348;42.710;23.378;2023-04-25T06:30:33;94271.78;;;15.41;100.00
20077;BME280;12348;42.710;23.378;2023-04-25T06:33:02;94282.06;;;15.48;100.00
20077;BME280;12348;42.710;23.378;2023-04-25T06:35:28;94278.78;;;15.30;100.00
20077;BME280;12348;42.710;23.378;2023-04-25T06:37:55;94284.09;;;14.77;100.00
20077;BME280;12348;42.710;23.378;2023-04-25T06:40:22;94279.56;;;14.69;100.00
20077;BME280;12348;42.710;23.378;2023-04-25T06:42:49;94278.59;;;15.35;100.00
20077;BME280;12348;42.710;23.378;2023-04-25T06:45:16;94277.91;;;17.38;100.00
20077;BME280;12348;42.710;23.378;2023-04-25T06:47:42;94283.06;;;18.72;100.00
20077;BME280;12348;42.710;23.378;2023-04-25T06:50:11;94280.09;;;17.84;95.80
20077;BME280;12348;42.710;23.378;2023-04-25T06:52:37;94277.50;;;16.45;99.99
20077;BME280;12348;42.710;23.378;2023-04-25T06:55:05;94269.41;;;16.33;100.00
20077;BME280;12348;42.710;23.378;2023-04-25T06:57:32;94284.06;;;16.16;100.00
20077;BME280;12348;42.710;23.378;2023-04-25T06:59:59;94291.56;;;16.35;100.00
20077;BME280;12348;42.710;23.378;2023-04-25T07:02:25;94279.31;;;16.41;100.00
20077;BME280;12348;42.710;23.378;2023-04-25T07:04:52;94274.41;;;16.03;100.00
20077;BME280;12348;42.710;23.378;2023-04-25T07:07:23;94275.69;;;16.21;100.00
20077;BME280;12348;42.710;23.378;2023-04-25T07:09:49;94278.38;;;16.77;100.00
20077;BME280;12348;42.710;23.378;2023-04-25T07:12:16;94274.31;;;17.03;100.00
20077;BME280;12348;42.710;23.378;2023-04-25T07:14:43;94285.94;;;17.00;97.23
20077;BME280;12348;42.710;23.378;2023-04-25T07:17:10;94286.06;;;16.75;98.20
20077;BME280;12348;42.710;23.378;2023-04-25T07:19:37;94277.00;;;16.27;98.11
20077;BME280;12348;42.710;23.378;2023-04-25T07:22:05;94276.22;;;16.27;100.00
20077;BME280;12348;42.710;23.378;2023-04-25T07:24:33;94275.44;;;16.70;100.00
20077;BME280;12348;42.710;23.378;2023-04-25T07:27:02;94274.00;;;16.44;100.00
20077;BME280;12348;42.710;23.378;2023-04-25T07:29:29;94273.69;;;16.34;100.00
20077;BME280;12348;42.710;23.378;2023-04-25T07:31:56;94269.28;;;16.13;100.00
20077;BME280;12348;42.710;23.378;2023-04-25T07:34:23;94276.59;;;15.85;100.00
20077;BME280;12348;42.710;23.378;2023-04-25T07:36:50;94265.31;;;16.11;100.00
20077;BME280;12348;42.710;23.378;2023-04-25T07:39:17;94271.88;;;16.38;100.00
20077;BME280;12348;42.710;23.378;2023-04-25T07:41:46;94261.19;;;16.45;100.00
20077;BME280;12348;42.710;23.378;2023-04-25T07:44:12;94261.22;;;17.40;98.70
20077;BME280;12348;42.710;23.378;2023-04-25T07:46:40;94262.03;;;18.53;91.88
20077;BME280;12348;42.710;23.378;2023-04-25T07:49:06;94254.94;;;18.91;85.25
20077;BME280;12348;42.710;23.378;2023-04-25T07:51:33;94257.31;;;19.65;86.46
20077;BME280;12348;42.710;23.378;2023-04-25T07:54:00;94260.09;;;18.96;85.41
20077;BME280;12348;42.710;23.378;2023-04-25T07:56:26;94254.25;;;17.93;91.49
20077;BME280;12348;42.710;23.378;2023-04-25T07:58:55;94250.97;;;18.04;92.13
20077;BME280;12348;42.710;23.378;2023-04-25T08:01:21;94259.09;;;17.49;95.15
20077;BME280;12348;42.710;23.378;2023-04-25T08:03:48;94251.38;;;16.56;99.45
20077;BME280;12348;42.710;23.378;2023-04-25T08:06:15;94255.03;;;18.52;91.18
20077;BME280;12348;42.710;23.378;2023-04-25T08:08:43;94259.00;;;18.78;87.84
20077;BME280;12348;42.710;23.378;2023-04-25T08:11:10;94257.41;;;18.77;87.58
20077;BME280;12348;42.710;23.378;2023-04-25T08:13:37;94252.63;;;18.08;89.31
20077;BME280;12348;42.710;23.378;2023-04-25T08:16:05;94249.56;;;18.52;89.81
20077;BME280;12348;42.710;23.378;2023-04-25T08:18:33;94254.00;;;19.56;83.28
20077;BME280;12348;42.710;23.378;2023-04-25T08:21:00;94251.97;;;21.66;76.27
20077;BME280;12348;42.710;23.378;2023-04-25T08:23:27;94238.59;;;22.16;70.79
20077;BME280;12348;42.710;23.378;2023-04-25T08:25:53;94231.38;;;23.02;65.13
20077;BME280;12348;42.710;23.378;2023-04-25T08:28:20;94225.47;;;23.75;63.50
20077;BME280;12348;42.710;23.378;2023-04-25T08:30:49;94230.97;;;23.64;60.77
20077;BME280;12348;42.710;23.378;2023-04-25T08:33:17;94234.03;;;24.13;57.74
20077;BME280;12348;42.710;23.378;2023-04-25T08:35:44;94225.50;;;23.11;59.72
20077;BME280;12348;42.710;23.378;2023-04-25T08:38:11;94233.94;;;22.27;65.11
20077;BME280;12348;42.710;23.378;2023-04-25T08:40:39;94228.66;;;21.93;68.45
20077;BME280;12348;42.710;23.378;2023-04-25T08:43:07;94237.53;;;20.39;76.29
20077;BME280;12348;42.710;23.378;2023-04-25T08:45:38;94254.81;;;18.84;92.48
20077;BME280;12348;42.710;23.378;2023-04-25T08:48:07;94263.41;;;16.55;100.00
20077;BME280;12348;42.710;23.378;2023-04-25T08:50:39;94263.19;;;15.27;100.00
20077;BME280;12348;42.710;23.378;2023-04-25T08:53:08;94260.81;;;14.64;100.00
20077;BME280;12348;42.710;23.378;2023-04-25T08:55:37;94261.75;;;14.35;100.00
20077;BME280;12348;42.710;23.378;2023-04-25T08:58:10;94251.00;;;14.84;100.00
20077;BME280;12348;42.710;23.378;2023-04-25T09:00:37;94247.94;;;14.73;100.00
20077;BME280;12348;42.710;23.378;2023-04-25T09:03:05;94240.38;;;15.28;100.00
20077;BME280;12348;42.710;23.378;2023-04-25T09:05:32;94229.97;;;18.04;100.00
20077;BME280;12348;42.710;23.378;2023-04-25T09:08:01;94225.47;;;20.81;100.00
20077;BME280;12348;42.710;23.378;2023-04-25T09:10:28;94215.25;;;22.75;96.92
20077;BME280;12348;42.710;23.378;2023-04-25T09:13:06;94222.34;;;23.69;73.75
20077;BME280;12348;42.710;23.378;2023-04-25T09:15:47;94219.88;;;20.67;75.22
20077;BME280;12348;42.710;23.378;2023-04-25T09:18:22;94216.22;;;21.41;78.02
20077;BME280;12348;42.710;23.378;2023-04-25T09:20:48;94215.28;;;21.22;78.04
20077;BME280;12348;42.710;23.378;2023-04-25T09:23:18;94207.78;;;20.34;78.35
20077;BME280;12348;42.710;23.378;2023-04-25T09:25:47;94207.81;;;19.70;78.56
20077;BME280;12348;42.710;23.378;2023-04-25T09:28:14;94203.31;;;19.85;85.46
20077;BME280;12348;42.710;23.378;2023-04-25T09:30:41;94200.94;;;19.53;87.75
20077;BME280;12348;42.710;23.378;2023-04-25T09:33:09;94200.38;;;20.01;77.69
20077;BME280;12348;42.710;23.378;2023-04-25T09:35:38;94193.78;;;20.39;91.14
20077;BME280;12348;42.710;23.378;2023-04-25T09:38:09;94211.94;;;20.21;80.69
20077;BME280;12348;42.710;23.378;2023-04-25T09:40:41;94203.63;;;20.85;76.68
20077;BME280;12348;42.710;23.378;2023-04-25T09:43:18;94200.28;;;21.61;76.82
20077;BME280;12348;42.710;23.378;2023-04-25T09:45:46;94197.66;;;22.98;79.44
20077;BME280;12348;42.710;23.378;2023-04-25T09:48:17;94193.31;;;23.22;69.70
20077;BME280;12348;42.710;23.378;2023-04-25T09:50:44;94198.66;;;22.22;74.10
20077;BME280;12348;42.710;23.378;2023-04-25T09:53:12;94202.78;;;21.91;76.83
20077;BME280;12348;42.710;23.378;2023-04-25T09:55:42;94197.66;;;21.78;77.83
20077;BME280;12348;42.710;23.378;2023-04-25T09:58:11;94197.75;;;20.45;85.85
20077;BME280;12348;42.710;23.378;2023-04-25T10:00:39;94202.47;;;19.81;80.81
20077;BME280;12348;42.710;23.378;2023-04-25T10:03:07;94203.44;;;18.86;85.55
20077;BME280;12348;42.710;23.378;2023-04-25T10:05:35;94214.78;;;18.69;88.35
20077;BME280;12348;42.710;23.378;2023-04-25T10:08:03;94215.13;;;18.44;89.97
20077;BME280;12348;42.710;23.378;2023-04-25T10:10:32;94214.59;;;17.96;91.98
20077;BME280;12348;42.710;23.378;2023-04-25T10:13:04;94195.56;;;19.34;100.00
20077;BME280;12348;42.710;23.378;2023-04-25T10:15:34;94190.25;;;21.86;83.79
20077;BME280;12348;42.710;23.378;2023-04-25T10:18:02;94183.63;;;21.94;75.52
20077;BME280;12348;42.710;23.378;2023-04-25T10:20:29;94175.78;;;21.93;79.11
20077;BME280;12348;42.710;23.378;2023-04-25T10:23:01;94178.56;;;20.42;78.05
20077;BME280;12348;42.710;23.378;2023-04-25T10:25:31;94180.66;;;19.28;83.21
20077;BME280;12348;42.710;23.378;2023-04-25T10:27:59;94178.91;;;19.12;81.53
20077;BME280;12348;42.710;23.378;2023-04-25T10:30:28;94195.25;;;18.66;84.00
20077;BME280;12348;42.710;23.378;2023-04-25T10:32:55;94203.78;;;18.19;87.31
20077;BME280;12348;42.710;23.378;2023-04-25T10:35:25;94214.91;;;17.56;95.14
20077;BME280;12348;42.710;23.378;2023-04-25T10:37:57;94224.41;;;16.79;100.00
20077;BME280;12348;42.710;23.378;2023-04-25T10:40:24;94221.88;;;16.27;98.67
20077;BME280;12348;42.710;23.378;2023-04-25T10:42:52;94234.63;;;15.30;94.60
20077;BME280;12348;42.710;23.378;2023-04-25T10:45:20;94224.59;;;14.81;100.00
20077;BME280;12348;42.710;23.378;2023-04-25T10:47:48;94231.13;;;15.04;100.00
20077;BME280;12348;42.710;23.378;2023-04-25T10:50:15;94219.28;;;15.09;100.00
20077;BME280;12348;42.710;23.378;2023-04-25T10:52:42;94209.97;;;15.87;100.00
20077;BME280;12348;42.710;23.378;2023-04-25T10:55:10;94208.47;;;17.29;100.00
20077;BME280;12348;42.710;23.378;2023-04-25T10:57:38;94197.25;;;18.47;89.24
20077;BME280;12348;42.710;23.378;2023-04-25T11:00:08;94208.00;;;18.16;87.62
20077;BME280;12348;42.710;23.378;2023-04-25T11:02:44;94203.09;;;18.45;87.95
20077;BME280;12348;42.710;23.378;2023-04-25T11:05:22;94205.53;;;18.96;83.91
20077;BME280;12348;42.710;23.378;2023-04-25T11:07:51;94186.72;;;19.71;82.93
20077;BME280;12348;42.710;23.378;2023-04-25T11:10:19;94189.63;;;19.55;80.94
20077;BME280;12348;42.710;23.378;2023-04-25T11:12:46;94177.66;;;19.63;83.67
20077;BME280;12348;42.710;23.378;2023-04-25T11:15:13;94178.78;;;20.26;79.98
20077;BME280;12348;42.710;23.378;2023-04-25T11:17:40;94173.78;;;20.31;76.35
20077;BME280;12348;42.710;23.378;2023-04-25T11:20:10;94170.44;;;20.49;73.56
20077;BME280;12348;42.710;23.378;2023-04-25T11:22:40;94175.47;;;20.43;73.24
20077;BME280;12348;42.710;23.378;2023-04-25T11:25:09;94170.97;;;20.24;73.68
20077;BME280;12348;42.710;23.378;2023-04-25T11:27:38;94166.41;;;20.36;70.00
20077;BME280;12348;42.710;23.378;2023-04-25T11:30:13;94164.53;;;19.46;67.83
20077;BME280;12348;42.710;23.378;2023-04-25T11:32:41;94158.41;;;18.99;71.18
20077;BME280;12348;42.710;23.378;2023-04-25T11:35:08;94150.44;;;18.41;72.62
20077;BME280;12348;42.710;23.378;2023-04-25T11:37:35;94159.94;;;18.28;68.87
20077;BME280;12348;42.710;23.378;2023-04-25T11:40:05;94155.09;;;17.98;68.62
20077;BME280;12348;42.710;23.378;2023-04-25T11:42:34;94164.72;;;17.92;69.71
20077;BME280;12348;42.710;23.378;2023-04-25T11:45:01;94171.28;;;17.52;72.15
20077;BME280;12348;42.710;23.378;2023-04-25T11:47:29;94158.75;;;17.12;76.33
20077;BME280;12348;42.710;23.378;2023-04-25T11:49:58;94162.22;;;16.93;76.37
20077;BME280;12348;42.710;23.378;2023-04-25T11:52:24;94169.84;;;16.88;77.08
20077;BME280;12348;42.710;23.378;2023-04-25T11:54:51;94169.31;;;16.98;76.29
20077;BME280;12348;42.710;23.378;2023-04-25T11:57:20;94173.34;;;17.04;77.73
20077;BME280;12348;42.710;23.378;2023-04-25T11:59:47;94161.09;;;17.49;73.44
20077;BME280;12348;42.710;23.378;2023-04-25T12:02:24;94156.28;;;18.20;72.14
20077;BME280;12348;42.710;23.378;2023-04-25T12:04:52;94158.34;;;18.96;66.61
20077;BME280;12348;42.710;23.378;2023-04-25T12:07:18;94161.13;;;18.73;65.00
20077;BME280;12348;42.710;23.378;2023-04-25T12:09:51;94162.78;;;17.92;70.35
20077;BME280;12348;42.710;23.378;2023-04-25T12:12:20;94149.06;;;18.08;68.68
20077;BME280;12348;42.710;23.378;2023-04-25T12:14:48;94149.81;;;17.66;73.57
20077;BME280;12348;42.710;23.378;2023-04-25T12:17:16;94159.19;;;18.08;72.47
20077;BME280;12348;42.710;23.378;2023-04-25T12:19:43;94153.03;;;17.91;75.52
20077;BME280;12348;42.710;23.378;2023-04-25T12:22:20;94156.81;;;17.67;71.58
20077;BME280;12348;42.710;23.378;2023-04-25T12:24:48;94154.81;;;17.64;70.13
20077;BME280;12348;42.710;23.378;2023-04-25T12:27:16;94144.94;;;17.56;70.60
20077;BME280;12348;42.710;23.378;2023-04-25T12:29:52;94149.50;;;17.52;73.10
20077;BME280;12348;42.710;23.378;2023-04-25T12:32:19;94174.00;;;17.33;71.92
20077;BME280;12348;42.710;23.378;2023-04-25T12:34:46;94211.19;;;17.44;73.06
20077;BME280;12348;42.710;23.378;2023-04-25T12:37:13;94209.41;;;16.69;83.19
20077;BME280;12348;42.710;23.378;2023-04-25T12:39:41;94217.50;;;15.94;100.00
20077;BME280;12348;42.710;23.378;2023-04-25T12:42:09;94227.75;;;14.83;100.00
20077;BME280;12348;42.710;23.378;2023-04-25T12:44:37;94235.06;;;13.38;100.00
20077;BME280;12348;42.710;23.378;2023-04-25T12:47:05;94231.28;;;12.62;100.00
20077;BME280;12348;42.710;23.378;2023-04-25T12:49:32;94232.59;;;12.56;100.00
20077;BME280;12348;42.710;23.378;2023-04-25T12:51:59;94217.31;;;12.60;100.00